createdAt,value
2016-05-28T00:00:37.860Z,0
2016-05-28T00:01:37.738Z,0
2016-05-28T00:02:37.913Z,0
2016-05-28T00:03:37.932Z,0
2016-05-28T00:04:38.559Z,0
2016-05-28T00:05:52.174Z,0
2016-05-28T00:06:38.002Z,0
2016-05-28T00:07:38.020Z,0
2016-05-28T00:10:38.090Z,0
2016-05-28T00:11:37.969Z,0
2016-05-28T00:12:38.143Z,0
2016-05-28T00:13:38.006Z,0
2016-05-28T00:14:38.024Z,0
2016-05-28T00:15:52.404Z,0
2016-05-28T00:16:38.232Z,0
2016-05-28T00:17:52.440Z,0
2016-05-28T00:18:52.475Z,0
2016-05-28T00:19:38.490Z,0
2016-05-28T00:20:52.527Z,0
2016-05-28T00:21:38.355Z,0
2016-05-28T00:22:38.373Z,0
2016-05-28T00:23:52.426Z,0
2016-05-28T00:24:38.426Z,0
2016-05-28T00:25:38.444Z,0
2016-05-28T00:26:52.653Z,0
2016-05-28T00:27:38.497Z,0
2016-05-28T00:28:38.530Z,0
2016-05-28T00:29:38.549Z,0
2016-05-28T00:30:52.741Z,0
2016-05-28T00:31:38.600Z,0
2016-05-28T00:32:38.291Z,0
2016-05-28T00:33:38.638Z,0
2016-05-28T00:34:38.546Z,0
2016-05-28T00:35:38.783Z,0
2016-05-28T00:36:38.708Z,0
2016-05-28T00:37:38.571Z,0
2016-05-28T00:38:38.791Z,0
2016-05-28T00:40:38.796Z,0
2016-05-28T00:41:38.815Z,0
2016-05-28T00:42:38.693Z,0
2016-05-28T00:43:38.712Z,0
2016-05-28T00:44:38.901Z,0
2016-05-28T00:45:38.935Z,0
2016-05-28T00:46:38.782Z,0
2016-05-28T00:47:53.146Z,0
2016-05-28T00:48:38.865Z,0
2016-05-28T00:49:39.024Z,0
2016-05-28T00:50:53.108Z,0
2016-05-28T00:51:39.061Z,0
2016-05-28T00:52:53.269Z,0
2016-05-28T00:53:39.113Z,0
2016-05-28T00:54:39.147Z,0
2016-05-28T00:56:53.375Z,0
2016-05-28T00:57:39.046Z,0
2016-05-28T00:58:39.236Z,0
2016-05-28T00:59:39.269Z,0
2016-05-28T01:00:39.258Z,0
2016-05-28T01:01:39.306Z,0
2016-05-28T01:02:39.308Z,0
2016-05-28T01:03:39.171Z,0
2016-05-28T01:04:39.221Z,0
2016-05-28T01:05:39.239Z,0
2016-05-28T01:07:39.432Z,0
2016-05-28T01:08:53.703Z,0
2016-05-28T01:09:39.485Z,0
2016-05-28T01:10:39.675Z,0
2016-05-28T01:11:39.536Z,0
2016-05-28T01:12:39.679Z,0
2016-05-28T01:13:39.495Z,0
2016-05-28T01:14:39.451Z,0
2016-05-28T01:16:39.660Z,0
2016-05-28T01:17:53.852Z,0
2016-05-28T01:18:39.681Z,0
2016-05-28T01:19:40.089Z,0
2016-05-28T01:20:39.889Z,0
2016-05-28T01:21:39.595Z,0
2016-05-28T01:22:39.769Z,0
2016-05-28T01:23:39.803Z,0
2016-05-28T01:24:54.011Z,0
2016-05-28T01:25:39.699Z,0
2016-05-28T01:26:39.873Z,0
2016-05-28T01:27:54.098Z,0
2016-05-28T01:28:39.926Z,0
2016-05-28T01:30:54.153Z,0
2016-05-28T01:31:39.997Z,0
2016-05-28T01:32:40.014Z,0
2016-05-28T01:33:54.067Z,0
2016-05-28T01:34:39.911Z,0
2016-05-28T01:35:40.085Z,0
2016-05-28T01:36:39.791Z,0
2016-05-28T01:37:39.982Z,0
2016-05-28T01:38:40.155Z,0
2016-05-28T01:39:40.174Z,0
2016-05-28T01:40:54.243Z,0
2016-05-28T01:41:40.227Z,0
2016-05-28T01:42:54.451Z,0
2016-05-28T01:43:40.263Z,0
2016-05-28T01:44:40.282Z,0
2016-05-28T01:45:40.315Z,0
2016-05-28T01:46:40.193Z,0
2016-05-28T01:47:40.352Z,0
2016-05-28T01:49:40.264Z,0
2016-05-28T01:50:39.985Z,0
2016-05-28T01:51:54.631Z,0
2016-05-28T01:52:40.490Z,0
2016-05-28T01:53:40.508Z,0
2016-05-28T01:54:40.370Z,0
2016-05-28T01:55:54.720Z,0
2016-05-28T01:56:40.564Z,0
2016-05-28T01:57:40.457Z,0
2016-05-28T01:58:54.822Z,0
2016-05-28T02:00:40.669Z,0
2016-05-28T02:01:54.861Z,0
2016-05-28T02:02:40.720Z,0
2016-05-28T02:03:54.757Z,0
2016-05-28T02:04:41.272Z,0
2016-05-28T02:05:40.791Z,0
2016-05-28T02:06:40.810Z,0
2016-05-28T02:07:55.002Z,0
2016-05-28T02:08:54.864Z,0
2016-05-28T02:09:40.896Z,0
2016-05-28T02:10:40.899Z,0
2016-05-28T02:11:40.745Z,0
2016-05-28T02:12:40.779Z,0
2016-05-28T02:13:40.968Z,0
2016-05-28T02:14:40.987Z,0
2016-05-28T02:15:40.693Z,0
2016-05-28T02:16:40.868Z,0
2016-05-28T02:17:41.057Z,0
2016-05-28T02:18:41.076Z,0
2016-05-28T02:19:55.410Z,0
2016-05-28T02:21:41.146Z,0
2016-05-28T02:22:41.164Z,0
2016-05-28T02:23:41.027Z,0
2016-05-28T02:24:55.392Z,0
2016-05-28T02:25:55.442Z,0
2016-05-28T02:26:41.098Z,0
2016-05-28T02:27:55.462Z,0
2016-05-28T02:28:41.306Z,0
2016-05-28T02:29:41.325Z,0
2016-05-28T02:30:40.889Z,0
2016-05-28T02:31:55.411Z,0
2016-05-28T02:32:41.395Z,0
2016-05-28T02:34:42.306Z,0
2016-05-28T02:35:41.308Z,0
2016-05-28T02:37:41.362Z,0
2016-05-28T02:38:55.727Z,0
2016-05-28T02:39:41.555Z,0
2016-05-28T02:40:41.432Z,0
2016-05-28T02:41:41.310Z,0
2016-05-28T02:42:41.624Z,0
2016-05-28T02:43:55.662Z,0
2016-05-28T02:44:41.662Z,0
2016-05-28T02:45:41.695Z,0
2016-05-28T02:46:41.714Z,0
2016-05-28T02:47:41.732Z,0
2016-05-28T02:48:55.940Z,0
2016-05-28T02:49:56.724Z,0
2016-05-28T02:50:41.974Z,5
2016-05-28T02:51:41.837Z,5
2016-05-28T02:52:41.855Z,5
2016-05-28T02:53:41.874Z,5
2016-05-28T02:54:56.066Z,5
2016-05-28T02:55:41.925Z,5
2016-05-28T02:56:41.944Z,5
2016-05-28T02:57:41.962Z,5
2016-05-28T02:58:42.011Z,5
2016-05-28T03:00:10.220Z,10
2016-05-28T03:00:42.033Z,10
2016-05-28T03:01:42.050Z,10
2016-05-28T03:02:42.086Z,10
2016-05-28T03:03:56.122Z,10
2016-05-28T03:04:42.903Z,10
2016-05-28T03:05:41.999Z,15
2016-05-28T03:06:42.174Z,15
2016-05-28T03:07:42.191Z,15
2016-05-28T03:08:56.244Z,15
2016-05-28T03:09:56.435Z,15
2016-05-28T03:10:42.091Z,20
2016-05-28T03:11:42.281Z,20
2016-05-28T03:12:42.144Z,20
2016-05-28T03:13:42.333Z,20
2016-05-28T03:15:56.404Z,25
2016-05-28T03:17:42.406Z,25
2016-05-28T03:18:42.425Z,25
2016-05-28T03:19:42.349Z,30
2016-05-28T03:20:42.493Z,30
2016-05-28T03:21:42.370Z,30
2016-05-28T03:22:42.529Z,30
2016-05-28T03:23:56.738Z,35
2016-05-28T03:24:42.598Z,35
2016-05-28T03:25:42.631Z,40
2016-05-28T03:26:42.618Z,40
2016-05-28T03:27:42.495Z,40
2016-05-28T03:28:56.845Z,40
2016-05-28T03:29:42.548Z,45
2016-05-28T03:30:56.913Z,45
2016-05-28T03:31:42.741Z,45
2016-05-28T03:32:56.794Z,45
2016-05-28T03:33:42.622Z,45
2016-05-28T03:34:43.358Z,45
2016-05-28T03:35:43.330Z,50
2016-05-28T03:36:42.848Z,50
2016-05-28T03:37:42.882Z,55
2016-05-28T03:38:42.775Z,55
2016-05-28T03:39:42.934Z,60
2016-05-28T03:40:57.144Z,60
2016-05-28T03:41:42.972Z,65
2016-05-28T03:42:42.989Z,65
2016-05-28T03:43:43.007Z,65
2016-05-28T03:44:43.027Z,70
2016-05-28T03:45:57.094Z,75
2016-05-28T03:46:57.252Z,80
2016-05-28T03:47:43.096Z,90
2016-05-28T03:48:42.959Z,85
2016-05-28T03:49:43.743Z,80
2016-05-28T03:50:43.168Z,85
2016-05-28T03:51:43.185Z,85
2016-05-28T03:52:57.238Z,90
2016-05-28T03:53:43.238Z,90
2016-05-28T03:54:43.257Z,95
2016-05-28T03:55:43.118Z,95
2016-05-28T03:56:43.308Z,100
2016-05-28T03:58:43.361Z,120
2016-05-28T03:59:43.378Z,120
2016-05-28T04:00:43.397Z,115
2016-05-28T04:01:43.415Z,120
2016-05-28T04:02:57.625Z,125
2016-05-28T04:03:57.658Z,130
2016-05-28T04:04:44.361Z,130
2016-05-28T04:05:43.520Z,135
2016-05-28T04:06:43.398Z,140
2016-05-28T04:07:43.556Z,140
2016-05-28T04:08:43.433Z,175
2016-05-28T04:09:43.609Z,270
2016-05-28T04:10:43.627Z,315
2016-05-28T04:11:57.836Z,320
2016-05-28T04:13:43.697Z,300
2016-05-28T04:14:43.732Z,315
2016-05-28T04:15:43.750Z,265
2016-05-28T04:16:43.769Z,205
2016-05-28T04:17:43.833Z,210
2016-05-28T04:18:57.996Z,215
2016-05-28T04:19:44.121Z,210
2016-05-28T04:20:43.873Z,215
2016-05-28T04:21:43.891Z,215
2016-05-28T04:22:43.940Z,225
2016-05-28T04:23:58.134Z,225
2016-05-28T04:24:43.977Z,220
2016-05-28T04:25:43.996Z,230
2016-05-28T04:26:44.045Z,265
2016-05-28T04:27:44.048Z,280
2016-05-28T04:28:44.050Z,275
2016-05-28T04:29:43.912Z,285
2016-05-28T04:30:43.947Z,335
2016-05-28T04:31:43.964Z,430
2016-05-28T04:32:44.014Z,495
2016-05-28T04:33:44.173Z,520
2016-05-28T04:34:58.866Z,495
2016-05-28T04:35:44.069Z,485
2016-05-28T04:36:44.244Z,520
2016-05-28T04:37:44.294Z,500
2016-05-28T04:38:44.125Z,490
2016-05-28T04:39:44.017Z,425
2016-05-28T04:40:58.539Z,410
2016-05-28T04:41:44.367Z,435
2016-05-28T04:42:44.385Z,695
2016-05-28T04:43:44.419Z,560
2016-05-28T04:44:58.644Z,455
2016-05-28T04:45:58.490Z,335
2016-05-28T04:46:44.333Z,360
2016-05-28T04:47:44.539Z,350
2016-05-28T04:48:44.542Z,425
2016-05-28T04:49:45.873Z,415
2016-05-28T04:50:58.769Z,640
2016-05-28T04:51:44.488Z,930
2016-05-28T04:52:58.821Z,795
2016-05-28T04:53:44.524Z,660
2016-05-28T04:54:44.387Z,445
2016-05-28T04:55:44.560Z,695
2016-05-28T04:56:44.454Z,610
2016-05-28T04:57:44.753Z,730
2016-05-28T04:58:58.821Z,730
2016-05-28T04:59:44.821Z,775
2016-05-28T05:00:58.889Z,570
2016-05-28T05:01:59.079Z,655
2016-05-28T05:02:44.908Z,530
2016-05-28T05:03:44.770Z,485
2016-05-28T05:04:44.709Z,370
2016-05-28T05:05:59.183Z,300
2016-05-28T05:07:45.046Z,285
2016-05-28T05:08:45.074Z,270
2016-05-28T05:09:45.132Z,260
2016-05-28T05:10:45.175Z,240
2016-05-28T05:11:45.233Z,225
2016-05-28T05:12:45.120Z,195
2016-05-28T05:13:59.529Z,185
2016-05-28T05:14:45.388Z,180
2016-05-28T05:15:45.399Z,180
2016-05-28T05:16:45.441Z,175
2016-05-28T05:17:45.328Z,180
2016-05-28T05:18:45.354Z,180
2016-05-28T05:19:59.614Z,180
2016-05-28T05:20:45.708Z,180
2016-05-28T05:21:45.605Z,185
2016-05-28T05:22:45.611Z,185
2016-05-28T05:23:59.839Z,185
2016-05-28T05:24:45.667Z,185
2016-05-28T05:25:45.561Z,190
2016-05-28T05:26:45.752Z,190
2016-05-28T05:27:45.616Z,190
2016-05-28T05:28:45.650Z,190
2016-05-28T05:29:45.825Z,190
2016-05-28T05:30:45.859Z,195
2016-05-28T05:31:45.707Z,200
2016-05-28T05:32:45.725Z,205
2016-05-28T05:33:45.916Z,215
2016-05-28T05:34:46.387Z,225
2016-05-28T05:35:45.982Z,255
2016-05-28T05:37:00.176Z,255
2016-05-28T05:38:00.054Z,300
2016-05-28T05:38:46.038Z,270
2016-05-28T05:39:46.072Z,265
2016-05-28T05:40:46.090Z,275
2016-05-28T05:41:45.968Z,275
2016-05-28T05:42:46.143Z,280
2016-05-28T05:43:46.176Z,280
2016-05-28T05:45:46.229Z,290
2016-05-28T05:47:00.281Z,295
2016-05-28T05:47:46.281Z,295
2016-05-28T05:48:45.986Z,285
2016-05-28T05:49:46.740Z,275
2016-05-28T05:51:00.589Z,270
2016-05-28T05:51:46.370Z,270
2016-05-28T05:52:46.404Z,290
2016-05-28T05:54:00.613Z,310
2016-05-28T05:55:00.630Z,350
2016-05-28T05:56:00.509Z,435
2016-05-28T05:56:46.494Z,610
2016-05-28T05:57:46.527Z,800
2016-05-28T05:58:46.561Z,860
2016-05-28T06:00:46.316Z,535
2016-05-28T06:02:46.649Z,475
2016-05-28T06:04:15.061Z,1165
2016-05-28T06:04:46.421Z,1170
2016-05-28T06:05:47.377Z,1155
2016-05-28T06:07:46.818Z,1255
2016-05-28T06:08:46.837Z,1185
2016-05-28T06:10:00.890Z,1200
2016-05-28T06:10:46.890Z,1195
2016-05-28T06:11:46.908Z,1180
2016-05-28T06:13:46.960Z,1225
2016-05-28T06:15:46.872Z,1225
2016-05-28T06:16:47.062Z,1210
2016-05-28T06:17:46.784Z,1195
2016-05-28T06:18:47.131Z,1200
2016-05-28T06:19:47.164Z,1185
2016-05-28T06:20:47.042Z,1155
2016-05-28T06:22:47.250Z,1220
2016-05-28T06:23:47.128Z,1215
2016-05-28T06:24:47.162Z,1215
2016-05-28T06:26:01.542Z,1200
2016-05-28T06:26:47.230Z,1235
2016-05-28T06:27:47.405Z,1235
2016-05-28T06:29:01.628Z,1235
2016-05-28T06:30:01.506Z,1230
2016-05-28T06:30:47.491Z,1215
2016-05-28T06:31:47.524Z,1200
2016-05-28T06:32:47.574Z,1175
2016-05-28T06:33:47.608Z,1160
2016-05-28T06:34:47.924Z,1160
2016-05-28T06:35:47.519Z,1175
2016-05-28T06:37:01.915Z,1135
2016-05-28T06:38:01.918Z,1095
2016-05-28T06:39:47.484Z,1095
2016-05-28T06:41:02.035Z,1055
2016-05-28T06:41:47.879Z,1020
2016-05-28T06:43:02.088Z,995
2016-05-28T06:43:47.932Z,980
2016-05-28T06:44:47.809Z,945
2016-05-28T06:45:48.015Z,915
2016-05-28T06:46:47.892Z,880
2016-05-28T06:48:02.273Z,840
2016-05-28T06:48:47.961Z,820
2016-05-28T06:50:48.044Z,730
2016-05-28T06:51:48.234Z,730
2016-05-28T06:52:48.253Z,740
2016-05-28T06:54:48.337Z,705
2016-05-28T06:55:48.214Z,710
2016-05-28T06:56:48.404Z,700
2016-05-28T06:57:48.267Z,675
2016-05-28T06:58:48.457Z,685
2016-05-28T06:59:48.522Z,685
2016-05-28T07:00:48.540Z,680
2016-05-28T07:02:02.764Z,705
2016-05-28T07:02:48.608Z,730
2016-05-28T07:03:48.641Z,790
2016-05-28T07:04:49.066Z,1060
2016-05-28T07:05:48.710Z,1385
2016-05-28T07:06:48.759Z,1475
2016-05-28T07:07:48.777Z,1535
2016-05-28T07:08:48.812Z,1630
2016-05-28T07:09:48.721Z,1470
2016-05-28T07:10:48.738Z,1275
2016-05-28T07:11:48.929Z,1225
2016-05-28T07:13:03.012Z,1310
2016-05-28T07:13:49.012Z,1360
2016-05-28T07:15:02.908Z,1440
2016-05-28T07:15:49.080Z,1415
2016-05-28T07:17:03.304Z,1295
2016-05-28T07:17:49.148Z,1315
2016-05-28T07:18:49.182Z,1295
2016-05-28T07:19:50.169Z,1265
2016-05-28T07:20:49.094Z,1190
2016-05-28T07:21:49.127Z,1190
2016-05-28T07:22:49.162Z,1195
2016-05-28T07:23:49.039Z,1170
2016-05-28T07:24:49.386Z,1145
2016-05-28T07:25:49.436Z,1110
2016-05-28T07:26:49.485Z,1080
2016-05-28T07:27:49.503Z,1055
2016-05-28T07:29:03.728Z,1035
2016-05-28T07:29:49.572Z,1025
2016-05-28T07:31:49.638Z,1050
2016-05-28T07:32:49.533Z,1050
2016-05-28T07:33:49.739Z,1045
2016-05-28T07:35:49.790Z,1020
2016-05-28T07:37:04.015Z,1030
2016-05-28T07:38:04.063Z,1030
2016-05-28T07:38:49.595Z,1020
2016-05-28T07:39:49.926Z,990
2016-05-28T07:40:49.648Z,1005
2016-05-28T07:41:49.994Z,1005
2016-05-28T07:42:49.887Z,1015
2016-05-28T07:43:50.077Z,980
2016-05-28T07:45:04.332Z,945
2016-05-28T07:46:50.023Z,965
2016-05-28T07:47:50.228Z,1005
2016-05-28T07:48:50.247Z,1005
2016-05-28T07:50:04.675Z,985
2016-05-28T07:50:50.331Z,990
2016-05-28T07:52:04.555Z,980
2016-05-28T07:52:50.242Z,955
2016-05-28T07:53:50.448Z,945
2016-05-28T07:54:50.466Z,935
2016-05-28T07:56:04.534Z,885
2016-05-28T07:56:50.550Z,895
2016-05-28T07:57:50.615Z,900
2016-05-28T07:58:50.618Z,905
2016-05-28T07:59:50.495Z,890
2016-05-28T08:01:04.876Z,885
2016-05-28T08:01:50.720Z,890
2016-05-28T08:02:50.753Z,870
2016-05-28T08:03:50.788Z,870
2016-05-28T08:05:05.058Z,860
2016-05-28T08:06:04.921Z,835
2016-05-28T08:06:50.749Z,825
2016-05-28T08:07:50.782Z,815
2016-05-28T08:08:50.973Z,810
2016-05-28T08:09:51.022Z,825
2016-05-28T08:10:51.041Z,825
2016-05-28T08:11:51.074Z,805
2016-05-28T08:13:07.815Z,840
2016-05-28T08:14:51.207Z,810
2016-05-28T08:16:05.260Z,785
2016-05-28T08:16:51.104Z,785
2016-05-28T08:17:51.278Z,800
2016-05-28T08:18:51.343Z,805
2016-05-28T08:19:51.378Z,795
2016-05-28T08:20:51.395Z,785
2016-05-28T08:21:51.462Z,485
2016-05-28T08:23:05.653Z,410
2016-05-28T08:23:51.528Z,730
2016-05-28T08:25:19.909Z,765
2016-05-28T08:26:05.458Z,760
2016-05-28T08:27:05.806Z,745
2016-05-28T08:27:51.665Z,725
2016-05-28T08:28:51.730Z,700
2016-05-28T08:29:51.717Z,690
2016-05-28T08:30:51.751Z,310
2016-05-28T08:31:51.816Z,470
2016-05-28T08:32:51.678Z,675
2016-05-28T08:33:51.852Z,665
2016-05-28T08:35:05.952Z,650
2016-05-28T08:35:51.921Z,655
2016-05-28T08:36:51.985Z,625
2016-05-28T08:38:06.194Z,340
2016-05-28T08:39:08.182Z,355
2016-05-28T08:39:52.072Z,650
2016-05-28T08:40:51.950Z,600
2016-05-28T08:42:20.518Z,410
2016-05-28T08:42:52.205Z,345
2016-05-28T08:43:52.223Z,345
2016-05-28T08:44:52.273Z,390
2016-05-28T08:45:52.276Z,555
2016-05-28T08:46:52.310Z,570
2016-05-28T08:48:06.596Z,580
2016-05-28T08:48:52.393Z,570
2016-05-28T08:49:52.974Z,565
2016-05-28T08:51:06.667Z,545
2016-05-28T08:51:52.495Z,535
2016-05-28T08:52:52.528Z,535
2016-05-28T08:54:06.768Z,535
2016-05-28T08:55:06.787Z,545
2016-05-28T08:55:52.475Z,550
2016-05-28T08:56:52.665Z,550
2016-05-28T08:57:52.698Z,550
2016-05-28T08:58:52.591Z,540
2016-05-28T08:59:52.766Z,535
2016-05-28T09:00:52.800Z,525
2016-05-28T09:01:52.834Z,520
2016-05-28T09:02:52.711Z,515
2016-05-28T09:04:07.077Z,515
2016-05-28T09:04:53.639Z,505
2016-05-28T09:05:52.689Z,505
2016-05-28T09:07:07.038Z,515
2016-05-28T09:07:53.038Z,520
2016-05-28T09:08:53.087Z,530
2016-05-28T09:10:21.499Z,510
2016-05-28T09:11:07.346Z,505
2016-05-28T09:12:07.363Z,315
2016-05-28T09:12:52.910Z,465
2016-05-28T09:14:07.291Z,255
2016-05-28T09:14:53.151Z,260
2016-05-28T09:15:53.169Z,265
2016-05-28T09:16:53.202Z,275
2016-05-28T09:17:53.393Z,295
2016-05-28T09:18:53.427Z,320
2016-05-28T09:20:08.432Z,460
2016-05-28T09:20:53.495Z,300
2016-05-28T09:21:53.387Z,395
2016-05-28T09:23:07.753Z,500
2016-05-28T09:23:53.596Z,500
2016-05-28T09:24:54.162Z,490
2016-05-28T09:25:53.509Z,480
2016-05-28T09:26:53.699Z,475
2016-05-28T09:27:53.732Z,465
2016-05-28T09:29:07.956Z,435
2016-05-28T09:30:07.990Z,420
2016-05-28T09:30:53.694Z,400
2016-05-28T09:31:53.868Z,260
2016-05-28T09:32:53.903Z,260
2016-05-28T09:33:53.935Z,255
2016-05-28T09:34:53.985Z,270
2016-05-28T09:36:08.210Z,290
2016-05-28T09:36:53.913Z,300
2016-05-28T09:37:54.071Z,415
2016-05-28T09:38:54.121Z,415
2016-05-28T09:39:54.171Z,425
2016-05-28T09:40:54.016Z,420
2016-05-28T09:41:54.052Z,410
2016-05-28T09:42:54.241Z,405
2016-05-28T09:43:54.275Z,390
2016-05-28T09:44:54.168Z,385
2016-05-28T09:45:54.343Z,370
2016-05-28T09:46:54.221Z,360
2016-05-28T09:48:08.446Z,235
2016-05-28T09:48:54.461Z,245
2016-05-28T09:49:54.791Z,240
2016-05-28T09:51:08.703Z,240
2016-05-28T09:51:57.859Z,240
2016-05-28T09:53:54.286Z,240
2016-05-28T09:55:08.823Z,245
2016-05-28T09:56:08.701Z,250
2016-05-28T09:56:56.764Z,260
2016-05-28T09:57:54.766Z,260
2016-05-28T09:58:55.581Z,265
2016-05-28T09:59:54.490Z,270
2016-05-28T10:00:54.837Z,280
2016-05-28T10:02:09.075Z,400
2016-05-28T10:02:54.904Z,390
2016-05-28T10:04:09.114Z,390
2016-05-28T10:04:55.754Z,385
2016-05-28T10:05:54.991Z,380
2016-05-28T10:06:56.883Z,315
2016-05-28T10:07:55.090Z,285
2016-05-28T10:08:55.092Z,275
2016-05-28T10:10:09.317Z,330
2016-05-28T10:10:55.020Z,390
2016-05-28T10:11:58.211Z,385
2016-05-28T10:12:55.213Z,385
2016-05-28T10:13:55.246Z,380
2016-05-28T10:14:55.296Z,375
2016-05-28T10:15:55.315Z,370
2016-05-28T10:16:58.349Z,375
2016-05-28T10:17:55.227Z,375
2016-05-28T10:18:55.416Z,370
2016-05-28T10:19:55.841Z,350
2016-05-28T10:20:55.468Z,355
2016-05-28T10:21:59.237Z,265
2016-05-28T10:23:09.743Z,260
2016-05-28T10:23:55.571Z,260
2016-05-28T10:25:09.856Z,260
2016-05-28T10:25:55.637Z,340
2016-05-28T10:27:11.753Z,345
2016-05-28T10:27:55.565Z,340
2016-05-28T10:28:55.740Z,330
2016-05-28T10:29:55.773Z,315
2016-05-28T10:30:55.651Z,300
2016-05-28T10:31:58.686Z,305
2016-05-28T10:32:55.861Z,215
2016-05-28T10:34:10.084Z,215
2016-05-28T10:34:55.459Z,220
2016-05-28T10:35:55.806Z,225
2016-05-28T10:37:10.170Z,225
2016-05-28T10:39:10.238Z,225
2016-05-28T10:39:56.082Z,225
2016-05-28T10:40:55.960Z,220
2016-05-28T10:41:56.150Z,220
2016-05-28T10:43:10.374Z,225
2016-05-28T10:43:56.108Z,225
2016-05-28T10:45:10.270Z,235
2016-05-28T10:46:56.163Z,240
2016-05-28T10:47:56.182Z,245
2016-05-28T10:48:56.387Z,250
2016-05-28T10:50:11.784Z,240
2016-05-28T10:51:10.365Z,245
2016-05-28T10:51:56.458Z,245
2016-05-28T10:52:56.351Z,245
2016-05-28T10:53:56.573Z,245
2016-05-28T10:55:11.282Z,250
2016-05-28T10:55:56.610Z,255
2016-05-28T10:56:56.643Z,250
2016-05-28T10:57:56.646Z,250
2016-05-28T10:58:56.540Z,245
2016-05-28T11:00:00.308Z,250
2016-05-28T11:00:56.748Z,255
2016-05-28T11:01:56.813Z,250
2016-05-28T11:02:56.801Z,320
2016-05-28T11:03:56.850Z,315
2016-05-28T11:05:01.150Z,315
2016-05-28T11:05:57.542Z,315
2016-05-28T11:06:56.795Z,315
2016-05-28T11:07:56.642Z,250
2016-05-28T11:09:56.866Z,260
2016-05-28T11:11:11.246Z,250
2016-05-28T11:11:57.105Z,255
2016-05-28T11:12:57.108Z,275
2016-05-28T11:13:57.158Z,265
2016-05-28T11:15:11.382Z,285
2016-05-28T11:15:57.226Z,285
2016-05-28T11:16:57.244Z,275
2016-05-28T11:17:57.278Z,285
2016-05-28T11:18:57.360Z,270
2016-05-28T11:19:57.768Z,210
2016-05-28T11:21:11.852Z,205
2016-05-28T11:21:57.399Z,200
2016-05-28T11:22:57.292Z,195
2016-05-28T11:23:57.293Z,195
2016-05-28T11:24:57.500Z,195
2016-05-28T11:26:11.568Z,195
2016-05-28T11:27:11.773Z,195
2016-05-28T11:27:57.586Z,190
2016-05-28T11:28:57.464Z,195
2016-05-28T11:29:57.654Z,195
2016-05-28T11:30:57.688Z,195
2016-05-28T11:31:57.753Z,200
2016-05-28T11:33:11.618Z,200
2016-05-28T11:33:57.634Z,200
2016-05-28T11:34:57.621Z,195
2016-05-28T11:36:11.860Z,195
2016-05-28T11:37:11.925Z,195
2016-05-28T11:37:57.894Z,200
2016-05-28T11:38:57.834Z,210
2016-05-28T11:40:57.996Z,265
2016-05-28T11:41:57.703Z,210
2016-05-28T11:42:57.908Z,210
2016-05-28T11:43:57.926Z,215
2016-05-28T11:45:12.291Z,225
2016-05-28T11:46:12.169Z,240
2016-05-28T11:46:58.013Z,285
2016-05-28T11:47:58.203Z,250
2016-05-28T11:48:58.236Z,260
2016-05-28T11:49:58.192Z,260
2016-05-28T11:51:12.479Z,265
2016-05-28T11:52:12.513Z,300
2016-05-28T11:52:58.201Z,300
2016-05-28T11:53:58.078Z,275
2016-05-28T11:54:58.424Z,240
2016-05-28T11:55:58.459Z,235
2016-05-28T11:56:58.321Z,235
2016-05-28T11:58:12.698Z,255
2016-05-28T11:58:58.388Z,230
2016-05-28T11:59:58.265Z,225
2016-05-28T12:00:58.598Z,215
2016-05-28T12:01:58.459Z,215
2016-05-28T12:03:12.837Z,210
2016-05-28T12:03:58.526Z,210
2016-05-28T12:04:59.405Z,205
2016-05-28T12:05:58.751Z,205
2016-05-28T12:06:58.769Z,205
2016-05-28T12:08:12.992Z,205
2016-05-28T12:08:58.836Z,205
2016-05-28T12:09:58.872Z,205
2016-05-28T12:10:58.906Z,210
2016-05-28T12:11:58.767Z,210
2016-05-28T12:12:58.941Z,210
2016-05-28T12:14:13.164Z,225
2016-05-28T12:14:58.869Z,265
2016-05-28T12:15:59.044Z,295
2016-05-28T12:17:13.265Z,230
2016-05-28T12:17:59.111Z,235
2016-05-28T12:18:58.833Z,235
2016-05-28T12:19:59.195Z,240
2016-05-28T12:20:59.041Z,250
2016-05-28T12:21:59.232Z,255
2016-05-28T12:23:13.437Z,250
2016-05-28T12:23:59.127Z,250
2016-05-28T12:24:59.318Z,255
2016-05-28T12:26:13.383Z,250
2016-05-28T12:26:59.229Z,245
2016-05-28T12:27:59.107Z,240
2016-05-28T12:28:59.453Z,240
2016-05-28T12:30:59.506Z,240
2016-05-28T12:32:13.711Z,245
2016-05-28T12:32:59.573Z,250
2016-05-28T12:33:59.482Z,270
2016-05-28T12:35:00.157Z,245
2016-05-28T12:35:59.659Z,240
2016-05-28T12:37:13.554Z,235
2016-05-28T12:39:13.981Z,225
2016-05-28T12:39:59.781Z,220
2016-05-28T12:41:13.861Z,220
2016-05-28T12:42:13.911Z,215
2016-05-28T12:43:13.913Z,205
2016-05-28T12:43:59.759Z,205
2016-05-28T12:44:59.950Z,200
2016-05-28T12:46:14.139Z,195
2016-05-28T12:46:59.987Z,195
2016-05-28T12:47:59.864Z,195
2016-05-28T12:49:28.260Z,195
2016-05-28T12:50:00.369Z,195
2016-05-28T12:51:00.107Z,195
2016-05-28T12:52:00.140Z,195
2016-05-28T12:53:00.190Z,195
2016-05-28T12:54:14.380Z,200
2016-05-28T12:55:00.242Z,200
2016-05-28T12:56:00.260Z,200
2016-05-28T12:57:00.294Z,200
2016-05-28T12:58:00.343Z,200
2016-05-28T12:59:00.362Z,200
2016-05-28T13:00:00.382Z,205
2016-05-28T13:01:14.587Z,210
2016-05-28T13:02:00.432Z,210
2016-05-28T13:03:00.483Z,215
2016-05-28T13:04:14.688Z,220
2016-05-28T13:05:00.816Z,220
2016-05-28T13:06:14.756Z,225
2016-05-28T13:07:14.775Z,230
2016-05-28T13:08:14.809Z,230
2016-05-28T13:09:14.843Z,265
2016-05-28T13:10:14.876Z,305
2016-05-28T13:11:14.894Z,300
2016-05-28T13:12:00.756Z,295
2016-05-28T13:13:00.806Z,295
2016-05-28T13:14:14.997Z,290
2016-05-28T13:15:00.842Z,285
2016-05-28T13:16:00.861Z,285
2016-05-28T13:17:00.598Z,275
2016-05-28T13:18:00.929Z,275
2016-05-28T13:19:00.807Z,260
2016-05-28T13:20:01.996Z,260
2016-05-28T13:21:01.016Z,260
2016-05-28T13:22:01.065Z,255
2016-05-28T13:23:15.255Z,250
2016-05-28T13:24:15.133Z,245
2016-05-28T13:25:01.135Z,255
2016-05-28T13:26:01.169Z,255
2016-05-28T13:27:15.391Z,255
2016-05-28T13:28:01.252Z,255
2016-05-28T13:29:00.960Z,255
2016-05-28T13:30:01.290Z,260
2016-05-28T13:31:01.168Z,260
2016-05-28T13:32:01.357Z,260
2016-05-28T13:33:15.407Z,255
2016-05-28T13:34:01.254Z,255
2016-05-28T13:35:01.819Z,250
2016-05-28T13:36:01.462Z,220
2016-05-28T13:37:01.496Z,195
2016-05-28T13:38:01.374Z,180
2016-05-28T13:40:15.785Z,180
2016-05-28T13:42:01.525Z,180
2016-05-28T13:43:01.684Z,180
2016-05-28T13:44:01.718Z,220
2016-05-28T13:45:01.595Z,180
2016-05-28T13:46:01.786Z,175
2016-05-28T13:47:01.803Z,170
2016-05-28T13:48:01.853Z,170
2016-05-28T13:49:16.059Z,165
2016-05-28T13:50:01.905Z,160
2016-05-28T13:51:01.784Z,160
2016-05-28T13:52:01.942Z,155
2016-05-28T13:53:01.992Z,155
2016-05-28T13:54:02.010Z,155
2016-05-28T13:55:30.422Z,155
2016-05-28T13:56:02.063Z,155
2016-05-28T13:57:02.113Z,150
2016-05-28T13:58:01.974Z,150
2016-05-28T13:59:02.165Z,150
2016-05-28T14:00:02.198Z,150
2016-05-28T14:01:02.232Z,155
2016-05-28T14:02:02.266Z,155
2016-05-28T14:04:02.318Z,150
2016-05-28T14:05:30.574Z,150
2016-05-28T14:06:02.371Z,150
2016-05-28T14:08:02.298Z,155
2016-05-28T14:09:16.645Z,155
2016-05-28T14:10:02.335Z,155
2016-05-28T14:12:16.730Z,175
2016-05-28T14:13:02.593Z,190
2016-05-28T14:14:16.798Z,200
2016-05-28T14:15:02.566Z,170
2016-05-28T14:16:02.702Z,170
2016-05-28T14:17:02.775Z,180
2016-05-28T14:18:02.833Z,195
2016-05-28T14:19:02.874Z,195
2016-05-28T14:20:03.626Z,235
2016-05-28T14:21:31.322Z,240
2016-05-28T14:22:03.009Z,240
2016-05-28T14:23:03.021Z,240
2016-05-28T14:24:03.079Z,235
2016-05-28T14:25:03.117Z,235
2016-05-28T14:26:03.170Z,235
2016-05-28T14:27:03.005Z,235
2016-05-28T14:28:03.073Z,230
2016-05-28T14:29:03.235Z,220
2016-05-28T14:30:03.131Z,225
2016-05-28T14:31:03.149Z,215
2016-05-28T14:32:03.341Z,210
2016-05-28T14:33:03.360Z,175
2016-05-28T14:34:03.395Z,170
2016-05-28T14:35:03.117Z,200
2016-05-28T14:36:17.464Z,215
2016-05-28T14:37:03.186Z,220
2016-05-28T14:38:17.706Z,220
2016-05-28T14:40:03.587Z,220
2016-05-28T14:41:17.620Z,220